Airfield :
LOGIN :

Register | Disclaimer

   EN    FR    IT 

 










Legend :    VFR   Marginal VFR   IFR   Intensive IFR   Very Intensive IFR
Visi :
Ceiling :
>= 8 km
>= 3000ft
5 to 8 km
1000 to 3000 ft
1500m to 5 km
500 to 1000 ft
800 to 1500m
200 to 500 ft
< 800m
< 200 ft
Symbols :   Thunderstorms  Fog  Heavy snow  Heavy precipitations  Wind > 20 kt
SIGMETs :     Misc.  Thunderstorms  Icing  Turbulence  Mountain Waves  Volcanic Ashes






- Airport Elevation : 137 ft
- IATA code : ARN


ESSA - Stockholm-Arlanda

CURRENT METAR :
  • 271650Z 02012KT 7000 OVC004 12/11 Q1015 BECMG BKN004

EXPIRED METARs :
  • 271620Z 01012KT 7000 OVC005 12/12 Q1015 BECMG BKN004
  • 271550Z 02012KT 9999 BKN005 12/12 Q1015 BECMG BKN004
  • 271520Z 01012KT 9999 BKN006 13/12 Q1015 NOSIG
  • 271450Z 02013KT 9999 BKN006 13/12 Q1015 NOSIG
  • 271420Z 01012KT 9999 BKN008 14/13 Q1014 TEMPO BKN007

TAF AMD TAF ESSA
Valid from the 27 at 16:00 until the 28 at 12:00 UTC


271655Z 2716/2812 02009KT 7000 BKN004
TEMPO 2716/2721 2000 BR
TEMPO 2721/2807 0500 FG VV002
BECMG 2807/2809 BKN011
BECMG 2809/2811 SCT012



MET'MAP, your aeronautical weather chart ! - Copyright ORBIFLY December 2007 - Disclaimer

ORBIFLY MET'MAP TEAM :

Programming & Development : Alexandra Zaïnal
Concept & original design : Baudouin d'Aumeries
Assistance for programming : Marc-Olivier Méhu
Technical & hardware support : Manuel Goepfert

Contact : metmap@orbifly.com




SOURCES & CREDITS :

   NOAA